createdAt,value
2022-09-23T00:02:33.737Z,5.20
2022-09-23T00:04:37.111Z,5.30
2022-09-23T00:06:41.217Z,5.30
2022-09-23T00:08:49.670Z,5.30
2022-09-23T00:12:59.705Z,5.40
2022-09-23T00:15:02.924Z,5.40
2022-09-23T00:17:07.030Z,5.40
2022-09-23T00:21:15.353Z,5.30
2022-09-23T00:25:22.259Z,5.30
2022-09-23T00:27:26.891Z,5.10
2022-09-23T00:29:32.562Z,5.10
2022-09-23T00:31:35.815Z,5.20
2022-09-23T00:33:40.583Z,5.10
2022-09-23T00:35:44.134Z,5.20
2022-09-23T00:37:47.477Z,5.20
2022-09-23T00:39:50.706Z,5.20
2022-09-23T00:41:54.186Z,5.30
2022-09-23T00:48:11.856Z,5.50
2022-09-23T00:52:24.329Z,5.50
2022-09-23T00:54:28.740Z,5.40
2022-09-23T01:00:46.467Z,5.30
2022-09-23T01:02:49.843Z,5.20
2022-09-23T01:04:53.352Z,5.20
2022-09-23T01:06:56.515Z,5.20
2022-09-23T01:09:00.316Z,5.10
2022-09-23T01:11:11.057Z,5.10
2022-09-23T01:15:25.900Z,5.00
2022-09-23T01:17:42.095Z,4.90
2022-09-23T01:20:06.873Z,4.90
2022-09-23T01:22:15.504Z,4.90
2022-09-23T01:24:50.262Z,4.90
2022-09-23T01:27:05.641Z,5.00
2022-09-23T01:29:38.216Z,4.90
2022-09-23T01:31:49.711Z,4.90
2022-09-23T01:36:08.729Z,4.90
2022-09-23T01:38:22.012Z,5.00
2022-09-23T01:40:32.303Z,4.90
2022-09-23T01:42:43.495Z,4.90
2022-09-23T01:44:52.549Z,4.80
2022-09-23T01:46:59.941Z,4.70
2022-09-23T01:49:10.393Z,4.60
2022-09-23T01:51:17.969Z,4.60
2022-09-23T01:53:26.603Z,4.50
2022-09-23T01:55:35.967Z,4.40
2022-09-23T01:57:42.808Z,4.40
2022-09-23T01:59:51.364Z,4.40
2022-09-23T02:02:00.713Z,4.30
2022-09-23T02:06:16.440Z,4.20
2022-09-23T02:08:23.590Z,4.10
2022-09-23T02:10:32.236Z,4.00
2022-09-23T02:14:48.161Z,4.00
2022-09-23T02:16:53.397Z,4.00
2022-09-23T02:19:01.998Z,3.90
2022-09-23T02:21:09.275Z,3.90
2022-09-23T02:23:14.678Z,4.00
2022-09-23T02:25:18.205Z,4.10
2022-09-23T02:27:27.018Z,4.30
2022-09-23T02:29:35.027Z,4.40
2022-09-23T02:31:43.405Z,4.60
2022-09-23T02:33:55.360Z,4.70
2022-09-23T02:38:21.647Z,4.90
2022-09-23T02:40:32.970Z,4.90
2022-09-23T02:42:44.205Z,5.10
2022-09-23T02:44:47.729Z,5.40
2022-09-23T02:49:01.477Z,5.50
2022-09-23T02:51:06.665Z,5.60
2022-09-23T02:53:10.499Z,5.60
2022-09-23T03:03:44.389Z,5.70
2022-09-23T03:05:51.968Z,5.60
2022-09-23T03:08:08.893Z,5.70
2022-09-23T03:10:22.045Z,5.90
2022-09-23T03:12:36.004Z,5.90
2022-09-23T03:19:00.437Z,5.50
2022-09-23T03:21:08.060Z,5.40
2022-09-23T03:25:23.907Z,5.20
2022-09-23T03:27:31.251Z,5.30
2022-09-23T03:29:37.409Z,5.30
2022-09-23T03:31:42.601Z,5.20
2022-09-23T03:36:12.933Z,5.10
2022-09-23T03:38:18.270Z,5.10
2022-09-23T03:40:25.847Z,5.10
2022-09-23T03:42:32.299Z,5.00
2022-09-23T03:44:39.381Z,5.00
2022-09-23T03:46:49.709Z,5.00
2022-09-23T03:48:53.177Z,5.00
2022-09-23T03:50:56.378Z,5.10
2022-09-23T03:53:00.421Z,5.20
2022-09-23T03:55:05.476Z,5.20
2022-09-23T03:57:09.176Z,5.10
2022-09-23T04:01:18.384Z,5.00
2022-09-23T04:03:22.780Z,5.00
2022-09-23T04:05:25.859Z,5.00
2022-09-23T04:07:29.309Z,5.00
2022-09-23T04:09:32.655Z,5.00
2022-09-23T04:11:37.368Z,4.90
2022-09-23T04:13:40.591Z,5.10
2022-09-23T04:15:43.875Z,5.10
2022-09-23T04:17:47.113Z,5.10
2022-09-23T04:23:57.266Z,5.00
2022-09-23T04:26:00.641Z,5.00
2022-09-23T04:28:05.366Z,5.00
2022-09-23T04:32:12.901Z,5.10
2022-09-23T04:34:17.484Z,5.10
2022-09-23T04:38:24.391Z,5.20
2022-09-23T04:40:27.913Z,5.20
2022-09-23T04:42:31.286Z,5.20
2022-09-23T04:44:36.187Z,5.20
2022-09-23T04:46:39.686Z,5.20
2022-09-23T04:48:43.685Z,5.20
2022-09-23T04:50:48.232Z,5.30
2022-09-23T04:52:51.420Z,5.30
2022-09-23T04:54:54.682Z,5.30
2022-09-23T04:56:58.269Z,5.30
2022-09-23T04:59:02.090Z,5.40
2022-09-23T05:01:16.346Z,5.50
2022-09-23T05:03:19.615Z,5.40
2022-09-23T05:05:23.728Z,5.40
2022-09-23T05:07:27.039Z,5.40
2022-09-23T05:09:30.373Z,5.40
2022-09-23T05:17:46.096Z,5.50
2022-09-23T05:19:49.528Z,5.50
2022-09-23T05:21:52.935Z,5.50
2022-09-23T05:23:59.077Z,5.50
2022-09-23T05:28:07.076Z,5.50
2022-09-23T05:30:11.719Z,5.60
2022-09-23T05:34:20.376Z,5.60
2022-09-23T05:38:28.531Z,5.70
2022-09-23T05:40:31.851Z,5.80
2022-09-23T05:42:35.624Z,5.90
2022-09-23T05:44:39.183Z,5.90
2022-09-23T05:46:42.555Z,6.00
2022-09-23T05:48:47.387Z,6.00
2022-09-23T05:51:03.988Z,6.10
2022-09-23T05:53:07.184Z,6.30
2022-09-23T05:55:11.693Z,6.40
2022-09-23T05:57:15.193Z,6.50
2022-09-23T05:59:18.421Z,6.50
2022-09-23T06:01:25.921Z,6.50
2022-09-23T06:03:29.573Z,6.60
2022-09-23T06:05:32.852Z,6.70
2022-09-23T06:07:38.315Z,6.80
2022-09-23T06:09:42.552Z,6.90
2022-09-23T06:11:46.862Z,7.00
2022-09-23T06:13:52.543Z,7.00
2022-09-23T06:15:59.943Z,7.10
2022-09-23T06:18:03.185Z,7.20
2022-09-23T06:20:07.093Z,7.20
2022-09-23T06:22:11.102Z,7.20
2022-09-23T06:24:19.665Z,7.40
2022-09-23T06:26:24.704Z,7.50
2022-09-23T06:28:32.163Z,7.60
2022-09-23T06:30:35.493Z,7.70
2022-09-23T06:32:38.864Z,7.80
2022-09-23T06:34:51.695Z,7.90
2022-09-23T06:36:55.816Z,8.10
2022-09-23T06:38:59.052Z,8.60
2022-09-23T06:41:04.267Z,9.00
2022-09-23T06:43:07.443Z,9.40
2022-09-23T06:45:13.256Z,9.80
2022-09-23T06:47:16.492Z,10.00
2022-09-23T06:49:22.694Z,10.50
2022-09-23T06:51:25.923Z,11.20
2022-09-23T06:53:32.315Z,11.50
2022-09-23T06:55:36.038Z,11.80
2022-09-23T06:57:41.582Z,12.00
2022-09-23T06:59:44.977Z,12.40
2022-09-23T07:10:03.322Z,15.00
2022-09-23T07:12:06.676Z,16.40
2022-09-23T07:16:15.134Z,17.20
2022-09-23T07:20:22.179Z,18.80
2022-09-23T07:22:26.495Z,19.20
2022-09-23T07:24:33.716Z,19.40
2022-09-23T07:26:36.995Z,19.70
2022-09-23T07:28:40.764Z,20.10
2022-09-23T07:30:57.331Z,20.10
2022-09-23T07:33:12.606Z,20.80
2022-09-23T07:35:24.203Z,21.10
2022-09-23T07:37:27.527Z,21.10
2022-09-23T07:39:30.834Z,21.90
2022-09-23T07:41:35.401Z,22.70
2022-09-23T07:45:45.466Z,22.40
2022-09-23T07:47:48.973Z,22.80
2022-09-23T07:49:54.215Z,23.50
2022-09-23T07:51:57.522Z,24.60
2022-09-23T07:54:01.117Z,25.20
2022-09-23T07:56:05.749Z,25.50
2022-09-23T08:02:19.175Z,26.00
2022-09-23T08:06:27.458Z,26.50
2022-09-23T08:10:34.554Z,27.50
2022-09-23T08:12:38.251Z,27.40
2022-09-23T08:16:45.920Z,28.20
2022-09-23T08:18:50.676Z,28.70
2022-09-23T08:20:53.988Z,28.50
2022-09-23T08:25:00.821Z,28.00
2022-09-23T08:27:04.182Z,28.80
2022-09-23T08:29:09.855Z,28.90
2022-09-23T08:35:28.653Z,27.70
2022-09-23T08:37:31.889Z,27.10
2022-09-23T08:41:49.432Z,28.10
2022-09-23T08:43:56.890Z,28.30
2022-09-23T08:46:03.556Z,28.40
2022-09-23T08:48:13.251Z,28.60
2022-09-23T08:50:20.410Z,29.40
2022-09-23T08:54:32.806Z,29.60
2022-09-23T08:56:38.875Z,28.60
2022-09-23T08:58:53.197Z,29.70
2022-09-23T09:03:15.841Z,29.30
2022-09-23T09:07:36.646Z,29.80
2022-09-23T09:09:46.200Z,30.30
2022-09-23T09:11:53.380Z,32.00
2022-09-23T09:14:04.454Z,32.10
2022-09-23T09:16:58.211Z,31.20
2022-09-23T09:23:23.025Z,31.20
2022-09-23T09:25:37.788Z,30.80
2022-09-23T09:27:42.462Z,31.30
2022-09-23T09:31:54.264Z,30.70
2022-09-23T09:34:03.820Z,30.10
2022-09-23T09:38:14.016Z,30.80
2022-09-23T09:42:28.325Z,31.10
2022-09-23T09:51:23.285Z,29.70
2022-09-23T10:01:47.814Z,30.40
2022-09-23T10:03:56.908Z,30.40
2022-09-23T10:06:15.740Z,30.10
2022-09-23T10:08:26.753Z,30.90
2022-09-23T10:19:21.586Z,29.70
2022-09-23T10:21:28.112Z,30.30
2022-09-23T10:23:33.524Z,30.80
2022-09-23T10:25:37.984Z,30.10
2022-09-23T10:27:41.270Z,31.10
2022-09-23T10:32:25.759Z,30.70
2022-09-23T10:34:30.356Z,30.50
2022-09-23T10:36:35.017Z,29.80
2022-09-23T10:38:38.801Z,30.30
2022-09-23T10:41:07.318Z,30.30
2022-09-23T10:50:33.162Z,29.70
2022-09-23T10:52:54.241Z,30.00
2022-09-23T10:59:50.398Z,28.60
2022-09-23T11:06:49.118Z,28.40
2022-09-23T11:09:20.155Z,27.60
2022-09-23T11:13:54.700Z,29.60
2022-09-23T11:16:11.569Z,29.80
2022-09-23T11:18:52.167Z,28.50
2022-09-23T11:21:07.333Z,29.50
2022-09-23T11:25:41.179Z,29.80
2022-09-23T11:28:21.001Z,28.70
2022-09-23T11:33:07.318Z,28.50
2022-09-23T11:35:17.711Z,28.60
2022-09-23T11:37:26.446Z,29.00
2022-09-23T11:41:53.957Z,28.40
2022-09-23T11:44:04.631Z,28.40
2022-09-23T11:46:14.284Z,27.90
2022-09-23T11:48:21.497Z,27.90
2022-09-23T11:50:31.958Z,28.70
2022-09-23T11:52:41.576Z,29.00
2022-09-23T11:54:50.221Z,28.40
2022-09-23T11:59:04.951Z,28.10
2022-09-23T12:03:19.991Z,29.80
2022-09-23T12:05:27.278Z,29.20
2022-09-23T12:07:40.667Z,28.20
2022-09-23T12:09:58.401Z,28.50
2022-09-23T12:12:14.226Z,29.00
2022-09-23T12:16:56.414Z,27.60
2022-09-23T12:19:12.887Z,27.50
2022-09-23T12:24:19.256Z,27.80
2022-09-23T12:28:31.331Z,28.30
2022-09-23T12:30:36.619Z,28.80
2022-09-23T12:32:41.327Z,28.10
2022-09-23T12:41:21.332Z,27.70
2022-09-23T12:43:33.227Z,27.50
2022-09-23T12:45:40.023Z,27.20
2022-09-23T12:47:44.260Z,26.80
2022-09-23T12:49:47.877Z,27.00
2022-09-23T12:52:26.208Z,27.40
2022-09-23T12:57:12.575Z,28.10
2022-09-23T12:59:26.638Z,27.30
2022-09-23T13:01:36.589Z,27.20
2022-09-23T13:04:04.063Z,28.20
2022-09-23T13:06:27.084Z,28.10
2022-09-23T13:08:30.805Z,27.90
2022-09-23T13:12:43.332Z,27.20
2022-09-23T13:16:51.893Z,26.90
2022-09-23T13:18:56.917Z,27.10
2022-09-23T13:21:00.459Z,27.50
2022-09-23T13:23:21.414Z,27.20
2022-09-23T13:25:27.530Z,26.10
2022-09-23T13:27:34.753Z,26.10
2022-09-23T13:29:43.650Z,26.10
2022-09-23T13:31:48.035Z,26.30
2022-09-23T13:33:57.012Z,25.80
2022-09-23T13:36:04.223Z,26.20
2022-09-23T13:38:20.494Z,25.60
2022-09-23T13:40:25.557Z,25.70
2022-09-23T13:42:31.113Z,25.90
2022-09-23T13:44:34.359Z,26.10
2022-09-23T13:46:46.908Z,25.50
2022-09-23T13:48:54.795Z,25.10
2022-09-23T13:50:58.404Z,25.30
2022-09-23T13:55:07.191Z,25.20
2022-09-23T13:59:32.014Z,24.20
2022-09-23T14:01:36.844Z,24.30
2022-09-23T14:03:41.699Z,23.80
2022-09-23T14:05:45.396Z,23.60
2022-09-23T14:07:48.903Z,23.50
2022-09-23T14:12:00.285Z,22.90
2022-09-23T14:14:08.029Z,22.90
2022-09-23T14:16:14.884Z,22.70
2022-09-23T14:18:27.493Z,22.60
2022-09-23T14:20:32.371Z,22.70
2022-09-23T14:22:35.683Z,22.50
2022-09-23T14:24:39.725Z,22.60
2022-09-23T14:26:45.542Z,22.00
2022-09-23T14:28:49.889Z,21.70
2022-09-23T14:30:57.560Z,21.10
2022-09-23T14:33:04.404Z,21.00
2022-09-23T14:35:21.745Z,20.50
2022-09-23T14:37:51.248Z,20.30
2022-09-23T14:39:57.664Z,20.10
2022-09-23T14:42:01.517Z,19.70
2022-09-23T14:44:05.279Z,19.30
2022-09-23T14:46:19.666Z,19.20
2022-09-23T14:48:25.819Z,19.10
2022-09-23T14:50:47.217Z,19.00
2022-09-23T14:52:53.251Z,18.90
2022-09-23T14:54:56.588Z,18.60
2022-09-23T14:57:00.418Z,18.50
2022-09-23T14:59:03.901Z,18.20
2022-09-23T15:01:37.327Z,18.40
2022-09-23T15:03:48.583Z,18.30
2022-09-23T15:05:57.877Z,18.10
2022-09-23T15:08:03.937Z,17.90
2022-09-23T15:10:09.939Z,17.80
2022-09-23T15:12:15.812Z,17.70
2022-09-23T15:14:37.160Z,17.50
2022-09-23T15:16:41.871Z,17.20
2022-09-23T15:18:47.218Z,17.30
2022-09-23T15:20:52.490Z,17.10
2022-09-23T15:22:57.104Z,17.10
2022-09-23T15:25:17.721Z,17.00
2022-09-23T15:27:31.456Z,16.80
2022-09-23T15:29:34.681Z,16.70
2022-09-23T15:31:39.063Z,16.40
2022-09-23T15:33:42.631Z,16.30
2022-09-23T15:35:49.512Z,16.00
2022-09-23T15:37:54.082Z,15.80
2022-09-23T15:39:57.286Z,15.80
2022-09-23T15:42:02.205Z,15.70
2022-09-23T15:44:12.985Z,15.50
2022-09-23T15:46:20.588Z,15.20
2022-09-23T15:48:26.483Z,15.00
2022-09-23T15:50:31.323Z,14.80
2022-09-23T15:52:34.859Z,14.80
2022-09-23T15:54:38.142Z,14.60
2022-09-23T15:56:41.641Z,14.50
2022-09-23T15:58:47.107Z,14.20
2022-09-23T16:00:56.210Z,14.00
2022-09-23T16:03:01.138Z,13.80
2022-09-23T16:05:06.042Z,13.80
2022-09-23T16:07:14.452Z,13.60
2022-09-23T16:09:17.811Z,13.50
2022-09-23T16:11:24.266Z,13.40
2022-09-23T16:13:27.660Z,13.30
2022-09-23T16:15:34.403Z,13.20
2022-09-23T16:17:37.830Z,13.10
2022-09-23T16:19:41.174Z,12.90
2022-09-23T16:21:44.718Z,12.80
2022-09-23T16:23:50.132Z,12.80
2022-09-23T16:25:53.435Z,12.80
2022-09-23T16:27:58.077Z,12.70
2022-09-23T16:30:01.489Z,12.70
2022-09-23T16:32:06.783Z,12.60
2022-09-23T16:34:10.228Z,12.50
2022-09-23T16:36:18.814Z,12.30
2022-09-23T16:38:22.341Z,12.20
2022-09-23T16:40:26.004Z,12.30
2022-09-23T16:42:29.562Z,12.10
2022-09-23T16:44:33.279Z,12.00
2022-09-23T16:46:36.864Z,11.80
2022-09-23T16:48:43.692Z,11.70
2022-09-23T16:50:49.307Z,11.60
2022-09-23T16:52:55.330Z,11.50
2022-09-23T16:54:58.560Z,11.40
2022-09-23T16:57:02.235Z,11.30
2022-09-23T16:59:05.896Z,11.10
2022-09-23T17:01:30.270Z,11.00
2022-09-23T17:03:41.780Z,10.90
2022-09-23T17:05:47.064Z,10.80
2022-09-23T17:07:50.479Z,10.70
2022-09-23T17:09:53.855Z,10.60
2022-09-23T17:12:04.429Z,10.60
2022-09-23T17:14:07.961Z,10.50
2022-09-23T17:16:12.870Z,10.40
2022-09-23T17:18:19.430Z,10.30
2022-09-23T17:20:23.255Z,10.30
2022-09-23T17:22:31.151Z,10.20
2022-09-23T17:24:34.618Z,10.10
2022-09-23T17:26:38.367Z,10.10
2022-09-23T17:28:42.019Z,10.00
2022-09-23T17:30:45.372Z,9.90
2022-09-23T17:32:48.728Z,9.90
2022-09-23T17:34:52.117Z,9.80
2022-09-23T17:36:55.640Z,9.80
2022-09-23T17:39:00.258Z,9.80
2022-09-23T17:41:04.881Z,9.70
2022-09-23T17:43:08.602Z,9.60
2022-09-23T17:45:13.458Z,9.60
2022-09-23T17:47:16.777Z,9.50
2022-09-23T17:49:20.371Z,9.60
2022-09-23T17:51:25.306Z,9.50
2022-09-23T17:53:35.054Z,9.50
2022-09-23T17:55:39.898Z,9.40
2022-09-23T17:57:43.262Z,9.40
2022-09-23T17:59:48.846Z,9.30
2022-09-23T18:01:52.206Z,9.30
2022-09-23T18:03:56.226Z,9.20
2022-09-23T18:06:07.962Z,9.20
2022-09-23T18:08:11.298Z,9.20
2022-09-23T18:10:14.930Z,9.10
2022-09-23T18:12:19.779Z,9.10
2022-09-23T18:14:24.424Z,9.00
2022-09-23T18:16:29.904Z,8.90
2022-09-23T18:18:33.283Z,8.90
2022-09-23T18:20:36.633Z,8.90
2022-09-23T18:22:40.044Z,8.90
2022-09-23T18:24:43.266Z,8.90
2022-09-23T18:26:47.391Z,8.80
2022-09-23T18:28:55.647Z,8.80
2022-09-23T18:31:00.072Z,8.80
2022-09-23T18:33:03.454Z,8.80
2022-09-23T18:35:07.873Z,8.70
2022-09-23T18:37:15.659Z,8.70
2022-09-23T18:39:19.758Z,8.70
2022-09-23T18:41:23.584Z,8.70
2022-09-23T18:43:33.776Z,8.60
2022-09-23T18:45:40.767Z,8.70
2022-09-23T18:48:01.307Z,8.60
2022-09-23T18:50:22.182Z,8.60
2022-09-23T18:52:27.306Z,8.70
2022-09-23T18:54:31.533Z,8.60
2022-09-23T18:56:41.091Z,8.60
2022-09-23T18:58:47.764Z,8.60
2022-09-23T19:00:53.442Z,8.50
2022-09-23T19:02:57.719Z,8.50
2022-09-23T19:05:02.113Z,8.40
2022-09-23T19:07:05.643Z,8.40
2022-09-23T19:09:09.404Z,8.30
2022-09-23T19:11:13.955Z,8.30
2022-09-23T19:13:17.274Z,8.30
2022-09-23T19:15:20.548Z,8.30
2022-09-23T19:17:25.390Z,8.30
2022-09-23T19:19:28.977Z,8.30
2022-09-23T19:21:33.532Z,8.20
2022-09-23T19:23:37.004Z,8.20
2022-09-23T19:25:40.542Z,8.20
2022-09-23T19:27:43.827Z,8.20
2022-09-23T19:29:48.144Z,8.10
2022-09-23T19:31:51.686Z,8.00
2022-09-23T19:33:59.280Z,8.00
2022-09-23T19:36:02.952Z,8.00
2022-09-23T19:38:07.337Z,8.00
2022-09-23T19:40:11.733Z,8.00
2022-09-23T19:42:15.047Z,7.90
2022-09-23T19:44:20.211Z,7.90
2022-09-23T19:46:23.979Z,7.90
2022-09-23T19:48:27.347Z,7.90
2022-09-23T19:50:34.431Z,7.90
2022-09-23T19:52:37.894Z,7.80
2022-09-23T19:54:41.803Z,7.80
2022-09-23T19:56:45.096Z,7.80
2022-09-23T19:58:51.532Z,7.80
2022-09-23T20:00:54.960Z,7.70
2022-09-23T20:02:58.723Z,7.70
2022-09-23T20:05:02.157Z,7.60
2022-09-23T20:07:08.977Z,7.70
2022-09-23T20:09:12.406Z,7.70
2022-09-23T20:11:17.871Z,7.70
2022-09-23T20:13:21.703Z,7.60
2022-09-23T20:15:25.049Z,7.60
2022-09-23T20:17:29.398Z,7.60
2022-09-23T20:19:32.720Z,7.60
2022-09-23T20:21:36.118Z,7.60
2022-09-23T20:23:41.116Z,7.60
2022-09-23T20:26:01.815Z,7.60
2022-09-23T20:28:05.835Z,7.50
2022-09-23T20:30:10.468Z,7.60
2022-09-23T20:32:14.548Z,7.60
2022-09-23T20:34:18.651Z,7.60
2022-09-23T20:36:22.259Z,7.60
2022-09-23T20:38:25.454Z,7.60
2022-09-23T20:40:30.169Z,7.60
2022-09-23T20:42:35.192Z,7.70
2022-09-23T20:44:38.527Z,7.70
2022-09-23T20:46:47.448Z,7.70
2022-09-23T20:48:51.687Z,7.70
2022-09-23T20:50:54.975Z,7.80
2022-09-23T20:52:58.192Z,7.80
2022-09-23T20:55:02.243Z,7.70
2022-09-23T20:57:07.030Z,7.70
2022-09-23T20:59:11.539Z,7.80
2022-09-23T21:01:15.705Z,7.80
2022-09-23T21:03:19.267Z,7.80
2022-09-23T21:05:22.974Z,7.80
2022-09-23T21:07:26.668Z,7.80
2022-09-23T21:09:32.038Z,7.80
2022-09-23T21:11:35.489Z,7.80
2022-09-23T21:13:40.586Z,7.80
2022-09-23T21:15:43.920Z,7.80
2022-09-23T21:17:47.476Z,7.80
2022-09-23T21:19:50.833Z,7.80
2022-09-23T21:21:54.294Z,7.80
2022-09-23T21:24:17.316Z,7.70
2022-09-23T21:26:26.109Z,7.70
2022-09-23T21:28:32.470Z,7.60
2022-09-23T21:30:37.211Z,7.50
2022-09-23T21:32:40.600Z,7.50
2022-09-23T21:34:43.811Z,7.40
2022-09-23T21:36:49.520Z,7.40
2022-09-23T21:38:53.419Z,7.40
2022-09-23T21:40:59.403Z,7.30
2022-09-23T21:43:02.826Z,7.30
2022-09-23T21:45:07.330Z,7.30
2022-09-23T21:47:12.051Z,7.20
2022-09-23T21:49:15.746Z,7.20
2022-09-23T21:51:21.003Z,7.10
2022-09-23T21:53:24.943Z,7.10
2022-09-23T21:55:28.248Z,7.10
2022-09-23T21:57:31.936Z,7.10
2022-09-23T21:59:35.208Z,7.00
2022-09-23T22:01:40.454Z,7.00
2022-09-23T22:03:46.062Z,6.90
2022-09-23T22:05:49.659Z,6.90
2022-09-23T22:07:54.266Z,6.80
2022-09-23T22:09:57.612Z,6.70
2022-09-23T22:12:08.694Z,6.70
2022-09-23T22:14:13.985Z,6.70
2022-09-23T22:16:17.250Z,6.70
2022-09-23T22:18:20.739Z,6.70
2022-09-23T22:20:25.570Z,6.60
2022-09-23T22:22:28.782Z,6.60
2022-09-23T22:24:32.196Z,6.50
2022-09-23T22:26:38.213Z,6.50
2022-09-23T22:28:58.884Z,6.50
2022-09-23T22:31:19.698Z,6.50
2022-09-23T22:33:23.040Z,6.40
2022-09-23T22:35:27.777Z,6.40
2022-09-23T22:37:34.311Z,6.40
2022-09-23T22:39:37.956Z,6.40
2022-09-23T22:41:41.452Z,6.30
2022-09-23T22:43:44.713Z,6.40
2022-09-23T22:45:51.740Z,6.30
2022-09-23T22:47:54.971Z,6.30
2022-09-23T22:49:58.209Z,6.30
2022-09-23T22:52:08.096Z,6.30
2022-09-23T22:54:12.199Z,6.30
2022-09-23T22:56:15.592Z,6.20
2022-09-23T22:58:31.747Z,6.30
2022-09-23T23:00:37.293Z,6.30
2022-09-23T23:02:42.643Z,6.30
2022-09-23T23:04:47.288Z,6.20
2022-09-23T23:06:50.985Z,6.20
2022-09-23T23:08:58.620Z,6.20
2022-09-23T23:11:06.111Z,6.20
2022-09-23T23:13:10.825Z,6.10
2022-09-23T23:15:14.246Z,6.10
2022-09-23T23:17:18.905Z,6.10
2022-09-23T23:19:23.649Z,6.00
2022-09-23T23:21:26.961Z,6.00
2022-09-23T23:23:30.273Z,6.00
2022-09-23T23:25:35.005Z,6.00
2022-09-23T23:27:38.345Z,6.00
2022-09-23T23:29:41.720Z,6.10
2022-09-23T23:31:45.309Z,6.10
2022-09-23T23:33:48.983Z,6.10
2022-09-23T23:35:52.643Z,6.00
2022-09-23T23:37:55.997Z,6.00
2022-09-23T23:39:59.246Z,6.00
2022-09-23T23:42:05.105Z,5.90
2022-09-23T23:44:09.076Z,5.90
2022-09-23T23:46:13.150Z,5.90
2022-09-23T23:48:16.450Z,5.90
2022-09-23T23:50:19.729Z,5.90
2022-09-23T23:52:23.166Z,5.80
2022-09-23T23:54:26.406Z,5.90
2022-09-23T23:56:32.167Z,5.90
2022-09-23T23:58:37.442Z,5.80
